sensor_id;sensor_type;location;lat;lon;timestamp;pressure;altitude;pressure_sealevel;temperature;humidity
80654;BME280;70020;45.524;10.240;2023-07-20T00:00:30;99549.28;;;36.52;39.77
80654;BME280;70020;45.524;10.240;2023-07-20T00:03:14;99543.63;;;36.91;38.70
80654;BME280;70020;45.524;10.240;2023-07-20T00:05:47;99554.28;;;37.20;38.03
80654;BME280;70020;45.524;10.240;2023-07-20T00:08:13;99580.25;;;36.31;40.15
80654;BME280;70020;45.524;10.240;2023-07-20T00:10:40;99583.56;;;36.47;39.08
80654;BME280;70020;45.524;10.240;2023-07-20T00:13:06;99587.78;;;36.76;39.48
80654;BME280;70020;45.524;10.240;2023-07-20T00:15:32;99606.50;;;36.20;41.62
80654;BME280;70020;45.524;10.240;2023-07-20T00:17:58;99632.50;;;35.39;43.70
80654;BME280;70020;45.524;10.240;2023-07-20T00:20:24;99607.81;;;34.83;43.44
80654;BME280;70020;45.524;10.240;2023-07-20T00:22:51;99582.47;;;34.30;43.79
80654;BME280;70020;45.524;10.240;2023-07-20T00:25:16;99569.19;;;35.46;42.83
80654;BME280;70020;45.524;10.240;2023-07-20T00:27:42;99595.75;;;35.92;41.39
80654;BME280;70020;45.524;10.240;2023-07-20T00:30:08;99615.00;;;36.56;40.05
80654;BME280;70020;45.524;10.240;2023-07-20T00:32:34;99627.41;;;36.57;39.93
80654;BME280;70020;45.524;10.240;2023-07-20T00:34:59;99637.31;;;36.85;39.73
80654;BME280;70020;45.524;10.240;2023-07-20T00:37:25;99620.78;;;37.11;39.33
80654;BME280;70020;45.524;10.240;2023-07-20T00:39:51;99605.03;;;37.55;37.98
80654;BME280;70020;45.524;10.240;2023-07-20T00:42:17;99611.00;;;37.52;38.15
80654;BME280;70020;45.524;10.240;2023-07-20T00:44:42;99611.78;;;36.78;40.03
80654;BME280;70020;45.524;10.240;2023-07-20T00:47:08;99602.28;;;36.62;39.81
80654;BME280;70020;45.524;10.240;2023-07-20T00:49:34;99588.50;;;36.63;39.58
80654;BME280;70020;45.524;10.240;2023-07-20T00:52:00;99587.34;;;36.69;40.69
80654;BME280;70020;45.524;10.240;2023-07-20T00:54:27;99569.84;;;36.48;39.55
80654;BME280;70020;45.524;10.240;2023-07-20T00:56:54;99573.81;;;36.74;39.49
80654;BME280;70020;45.524;10.240;2023-07-20T00:59:22;99570.88;;;36.90;39.33
80654;BME280;70020;45.524;10.240;2023-07-20T01:01:47;99579.56;;;36.87;39.43
80654;BME280;70020;45.524;10.240;2023-07-20T01:04:13;99569.94;;;36.99;39.08
80654;BME280;70020;45.524;10.240;2023-07-20T01:09:15;99556.13;;;37.70;37.46
80654;BME280;70020;45.524;10.240;2023-07-20T01:11:57;99561.69;;;37.60;38.25
80654;BME280;70020;45.524;10.240;2023-07-20T01:14:25;99580.28;;;37.29;39.02
80654;BME280;70020;45.524;10.240;2023-07-20T01:16:51;99583.03;;;36.87;39.51
80654;BME280;70020;45.524;10.240;2023-07-20T01:19:20;99608.66;;;36.47;40.26
80654;BME280;70020;45.524;10.240;2023-07-20T01:21:57;99614.78;;;36.53;39.82
80654;BME280;70020;45.524;10.240;2023-07-20T01:32:46;99595.00;;;36.62;39.58
80654;BME280;70020;45.524;10.240;2023-07-20T01:35:14;99600.22;;;36.54;39.81
80654;BME280;70020;45.524;10.240;2023-07-20T01:37:43;99598.88;;;36.28;40.53
80654;BME280;70020;45.524;10.240;2023-07-20T01:40:10;99588.53;;;35.87;40.80
80654;BME280;70020;45.524;10.240;2023-07-20T01:42:36;99574.69;;;36.23;40.48
80654;BME280;70020;45.524;10.240;2023-07-20T01:45:03;99564.75;;;35.94;40.20
80654;BME280;70020;45.524;10.240;2023-07-20T01:47:30;99551.28;;;35.94;40.87
80654;BME280;70020;45.524;10.240;2023-07-20T01:49:55;99549.72;;;36.59;39.83
80654;BME280;70020;45.524;10.240;2023-07-20T01:52:22;99540.00;;;36.16;39.83
80654;BME280;70020;45.524;10.240;2023-07-20T01:54:48;99537.00;;;36.41;39.92
80654;BME280;70020;45.524;10.240;2023-07-20T01:57:14;99521.94;;;36.16;39.72
80654;BME280;70020;45.524;10.240;2023-07-20T01:59:39;99515.66;;;36.45;39.34
80654;BME280;70020;45.524;10.240;2023-07-20T02:02:06;99525.53;;;36.73;39.07
80654;BME280;70020;45.524;10.240;2023-07-20T02:04:32;99539.66;;;37.21;38.28
80654;BME280;70020;45.524;10.240;2023-07-20T02:06:58;99534.72;;;37.09;38.19
80654;BME280;70020;45.524;10.240;2023-07-20T02:09:24;99540.13;;;36.53;39.20
80654;BME280;70020;45.524;10.240;2023-07-20T02:11:50;99536.97;;;36.83;38.40
80654;BME280;70020;45.524;10.240;2023-07-20T02:14:15;99537.28;;;37.19;37.48
80654;BME280;70020;45.524;10.240;2023-07-20T02:16:41;99532.78;;;37.47;37.30
80654;BME280;70020;45.524;10.240;2023-07-20T02:19:06;99524.31;;;37.35;37.34
80654;BME280;70020;45.524;10.240;2023-07-20T02:21:32;99529.84;;;36.93;38.31
80654;BME280;70020;45.524;10.240;2023-07-20T02:23:58;99532.59;;;37.06;37.98
80654;BME280;70020;45.524;10.240;2023-07-20T02:26:23;99526.75;;;36.80;37.76
80654;BME280;70020;45.524;10.240;2023-07-20T02:28:49;99529.03;;;36.73;38.13
80654;BME280;70020;45.524;10.240;2023-07-20T02:31:15;99538.31;;;37.05;37.96
80654;BME280;70020;45.524;10.240;2023-07-20T02:33:40;99527.78;;;37.22;37.78
80654;BME280;70020;45.524;10.240;2023-07-20T02:36:06;99522.50;;;37.63;37.00
80654;BME280;70020;45.524;10.240;2023-07-20T02:38:32;99521.06;;;37.38;37.71
80654;BME280;70020;45.524;10.240;2023-07-20T02:40:58;99520.00;;;37.53;37.09
80654;BME280;70020;45.524;10.240;2023-07-20T02:43:24;99522.41;;;37.68;37.05
80654;BME280;70020;45.524;10.240;2023-07-20T02:45:50;99519.09;;;37.43;37.51
80654;BME280;70020;45.524;10.240;2023-07-20T02:48:16;99530.13;;;37.10;38.32
80654;BME280;70020;45.524;10.240;2023-07-20T02:50:43;99523.69;;;37.57;37.56
80654;BME280;70020;45.524;10.240;2023-07-20T02:53:09;99521.03;;;37.84;36.95
80654;BME280;70020;45.524;10.240;2023-07-20T02:55:35;99521.97;;;38.06;36.42
80654;BME280;70020;45.524;10.240;2023-07-20T02:58:01;99525.25;;;38.17;36.17
80654;BME280;70020;45.524;10.240;2023-07-20T03:00:27;99522.94;;;38.10;36.20
80654;BME280;70020;45.524;10.240;2023-07-20T03:02:53;99527.69;;;38.05;36.31
80654;BME280;70020;45.524;10.240;2023-07-20T03:05:21;99531.31;;;37.82;36.84
80654;BME280;70020;45.524;10.240;2023-07-20T03:07:48;99529.09;;;37.70;37.30
80654;BME280;70020;45.524;10.240;2023-07-20T03:10:14;99527.66;;;37.91;36.67
80654;BME280;70020;45.524;10.240;2023-07-20T03:12:40;99536.31;;;37.61;37.39
80654;BME280;70020;45.524;10.240;2023-07-20T03:15:06;99535.94;;;37.81;36.84
80654;BME280;70020;45.524;10.240;2023-07-20T03:17:33;99541.63;;;37.66;37.40
80654;BME280;70020;45.524;10.240;2023-07-20T03:19:59;99536.38;;;37.88;36.66
80654;BME280;70020;45.524;10.240;2023-07-20T03:22:26;99540.00;;;37.65;37.00
80654;BME280;70020;45.524;10.240;2023-07-20T03:24:52;99542.56;;;37.43;37.96
80654;BME280;70020;45.524;10.240;2023-07-20T03:27:18;99535.03;;;36.89;38.81
80654;BME280;70020;45.524;10.240;2023-07-20T03:29:44;99538.81;;;36.69;39.21
80654;BME280;70020;45.524;10.240;2023-07-20T03:32:10;99546.22;;;36.77;39.13
80654;BME280;70020;45.524;10.240;2023-07-20T03:34:36;99553.69;;;37.04;38.55
80654;BME280;70020;45.524;10.240;2023-07-20T03:37:02;99553.28;;;37.29;38.17
80654;BME280;70020;45.524;10.240;2023-07-20T03:39:30;99559.72;;;37.33;38.03
80654;BME280;70020;45.524;10.240;2023-07-20T03:41:57;99548.47;;;37.45;37.73
80654;BME280;70020;45.524;10.240;2023-07-20T03:44:22;99553.22;;;36.78;38.98
80654;BME280;70020;45.524;10.240;2023-07-20T03:46:48;99543.91;;;37.27;38.03
80654;BME280;70020;45.524;10.240;2023-07-20T03:49:15;99553.31;;;37.62;37.34
80654;BME280;70020;45.524;10.240;2023-07-20T03:51:42;99554.78;;;37.54;37.50
80654;BME280;70020;45.524;10.240;2023-07-20T03:54:08;99552.66;;;37.37;37.96
80654;BME280;70020;45.524;10.240;2023-07-20T03:56:34;99552.38;;;37.85;36.72
80654;BME280;70020;45.524;10.240;2023-07-20T03:59:01;99556.28;;;37.92;36.61
80654;BME280;70020;45.524;10.240;2023-07-20T04:01:26;99562.09;;;38.13;36.66
80654;BME280;70020;45.524;10.240;2023-07-20T04:03:52;99562.28;;;37.89;37.23
80654;BME280;70020;45.524;10.240;2023-07-20T04:06:18;99549.69;;;37.98;36.81
80654;BME280;70020;45.524;10.240;2023-07-20T04:08:44;99558.94;;;37.79;37.48
80654;BME280;70020;45.524;10.240;2023-07-20T04:11:12;99550.09;;;38.19;36.39
80654;BME280;70020;45.524;10.240;2023-07-20T04:13:38;99551.59;;;38.39;35.93
80654;BME280;70020;45.524;10.240;2023-07-20T04:16:04;99543.78;;;38.37;35.94
80654;BME280;70020;45.524;10.240;2023-07-20T04:18:30;99552.41;;;37.53;37.98
80654;BME280;70020;45.524;10.240;2023-07-20T04:20:56;99546.06;;;37.25;38.62
80654;BME280;70020;45.524;10.240;2023-07-20T04:23:23;99548.16;;;37.46;38.32
80654;BME280;70020;45.524;10.240;2023-07-20T04:25:48;99545.06;;;37.53;37.98
80654;BME280;70020;45.524;10.240;2023-07-20T04:28:13;99541.06;;;36.81;39.71
80654;BME280;70020;45.524;10.240;2023-07-20T04:30:39;99544.50;;;36.87;39.66
80654;BME280;70020;45.524;10.240;2023-07-20T04:33:06;99544.78;;;36.85;39.63
80654;BME280;70020;45.524;10.240;2023-07-20T04:35:53;99549.69;;;37.02;39.52
80654;BME280;70020;45.524;10.240;2023-07-20T04:38:20;99553.56;;;36.96;39.79
80654;BME280;70020;45.524;10.240;2023-07-20T04:40:48;99551.34;;;37.16;39.32
80654;BME280;70020;45.524;10.240;2023-07-20T04:43:14;99551.75;;;37.42;38.51
80654;BME280;70020;45.524;10.240;2023-07-20T04:45:40;99554.22;;;37.71;38.10
80654;BME280;70020;45.524;10.240;2023-07-20T04:48:13;99555.72;;;37.77;38.09
80654;BME280;70020;45.524;10.240;2023-07-20T04:50:44;99553.78;;;37.96;37.58
80654;BME280;70020;45.524;10.240;2023-07-20T04:53:14;99561.75;;;37.74;38.58
80654;BME280;70020;45.524;10.240;2023-07-20T04:55:40;99559.94;;;37.69;38.46
80654;BME280;70020;45.524;10.240;2023-07-20T04:58:06;99551.56;;;37.84;37.91
80654;BME280;70020;45.524;10.240;2023-07-20T05:00:33;99558.16;;;37.27;39.47
80654;BME280;70020;45.524;10.240;2023-07-20T05:03:00;99556.41;;;37.55;38.38
80654;BME280;70020;45.524;10.240;2023-07-20T05:05:26;99556.38;;;37.87;37.96
80654;BME280;70020;45.524;10.240;2023-07-20T05:07:52;99553.50;;;38.11;37.45
80654;BME280;70020;45.524;10.240;2023-07-20T05:10:17;99563.41;;;38.02;38.01
80654;BME280;70020;45.524;10.240;2023-07-20T05:12:43;99561.78;;;38.14;37.54
80654;BME280;70020;45.524;10.240;2023-07-20T05:15:10;99553.81;;;38.09;37.61
80654;BME280;70020;45.524;10.240;2023-07-20T05:17:35;99555.09;;;38.26;37.09
80654;BME280;70020;45.524;10.240;2023-07-20T05:20:01;99557.50;;;38.41;37.08
80654;BME280;70020;45.524;10.240;2023-07-20T05:22:26;99558.81;;;38.16;37.67
80654;BME280;70020;45.524;10.240;2023-07-20T05:24:52;99565.09;;;38.25;37.29
80654;BME280;70020;45.524;10.240;2023-07-20T05:27:18;99583.47;;;38.28;37.28
80654;BME280;70020;45.524;10.240;2023-07-20T05:29:46;99581.41;;;38.20;37.89
80654;BME280;70020;45.524;10.240;2023-07-20T05:32:13;99581.00;;;38.27;37.93
80654;BME280;70020;45.524;10.240;2023-07-20T05:34:39;99577.41;;;38.17;38.00
80654;BME280;70020;45.524;10.240;2023-07-20T05:37:05;99576.94;;;38.29;37.50
80654;BME280;70020;45.524;10.240;2023-07-20T05:39:34;99587.91;;;38.05;38.30
80654;BME280;70020;45.524;10.240;2023-07-20T05:41:59;99593.94;;;38.16;37.73
80654;BME280;70020;45.524;10.240;2023-07-20T05:44:25;99586.41;;;38.27;37.50
80654;BME280;70020;45.524;10.240;2023-07-20T05:46:51;99587.53;;;38.12;37.99
80654;BME280;70020;45.524;10.240;2023-07-20T05:49:16;99581.91;;;38.22;37.73
80654;BME280;70020;45.524;10.240;2023-07-20T05:51:41;99587.66;;;38.34;37.46
80654;BME280;70020;45.524;10.240;2023-07-20T05:54:08;99590.72;;;38.55;37.06
80654;BME280;70020;45.524;10.240;2023-07-20T05:56:34;99588.16;;;38.50;37.06
80654;BME280;70020;45.524;10.240;2023-07-20T05:59:00;99589.75;;;38.51;37.08
80654;BME280;70020;45.524;10.240;2023-07-20T06:01:26;99597.88;;;38.37;37.71
80654;BME280;70020;45.524;10.240;2023-07-20T06:03:53;99591.59;;;37.96;37.98
80654;BME280;70020;45.524;10.240;2023-07-20T06:06:23;99584.84;;;37.66;38.11
80654;BME280;70020;45.524;10.240;2023-07-20T06:08:48;99582.59;;;38.00;38.19
80654;BME280;70020;45.524;10.240;2023-07-20T06:11:14;99588.72;;;38.20;38.13
80654;BME280;70020;45.524;10.240;2023-07-20T06:13:40;99578.63;;;38.39;38.00
80654;BME280;70020;45.524;10.240;2023-07-20T06:16:08;99586.81;;;38.20;37.40
80654;BME280;70020;45.524;10.240;2023-07-20T06:18:34;99582.19;;;37.93;38.22
80654;BME280;70020;45.524;10.240;2023-07-20T06:21:00;99577.94;;;37.74;39.83
80654;BME280;70020;45.524;10.240;2023-07-20T06:23:26;99584.28;;;37.32;38.88
80654;BME280;70020;45.524;10.240;2023-07-20T06:25:52;99579.59;;;37.56;40.61
80654;BME280;70020;45.524;10.240;2023-07-20T06:28:18;99578.22;;;37.59;38.67
80654;BME280;70020;45.524;10.240;2023-07-20T06:30:44;99587.34;;;37.44;39.11
80654;BME280;70020;45.524;10.240;2023-07-20T06:33:10;99590.47;;;37.51;39.23
80654;BME280;70020;45.524;10.240;2023-07-20T06:35:36;99593.19;;;37.51;38.58
80654;BME280;70020;45.524;10.240;2023-07-20T06:38:02;99594.44;;;37.72;38.85
80654;BME280;70020;45.524;10.240;2023-07-20T06:40:31;99589.72;;;37.64;37.57
80654;BME280;70020;45.524;10.240;2023-07-20T06:42:57;99588.44;;;37.75;39.55
80654;BME280;70020;45.524;10.240;2023-07-20T06:45:23;99578.09;;;37.31;39.89
80654;BME280;70020;45.524;10.240;2023-07-20T06:47:49;99575.25;;;37.74;38.91
80654;BME280;70020;45.524;10.240;2023-07-20T06:50:15;99587.66;;;37.75;37.80
80654;BME280;70020;45.524;10.240;2023-07-20T06:52:41;99597.00;;;37.50;38.69
80654;BME280;70020;45.524;10.240;2023-07-20T06:55:07;99595.16;;;38.37;37.13
80654;BME280;70020;45.524;10.240;2023-07-20T06:57:32;99593.13;;;38.70;36.34
80654;BME280;70020;45.524;10.240;2023-07-20T06:59:58;99587.31;;;38.22;37.66
80654;BME280;70020;45.524;10.240;2023-07-20T07:02:23;99595.66;;;38.12;38.02
80654;BME280;70020;45.524;10.240;2023-07-20T07:04:52;99592.06;;;38.44;37.72
80654;BME280;70020;45.524;10.240;2023-07-20T07:07:18;99599.78;;;38.37;37.90
80654;BME280;70020;45.524;10.240;2023-07-20T07:09:43;99603.19;;;38.42;37.49
80654;BME280;70020;45.524;10.240;2023-07-20T07:12:09;99604.84;;;38.11;37.65
80654;BME280;70020;45.524;10.240;2023-07-20T07:14:40;99605.69;;;38.52;37.23
80654;BME280;70020;45.524;10.240;2023-07-20T07:17:06;99601.06;;;38.80;37.03
80654;BME280;70020;45.524;10.240;2023-07-20T07:19:32;99592.25;;;38.74;35.91
80654;BME280;70020;45.524;10.240;2023-07-20T07:21:58;99594.47;;;39.08;35.91
80654;BME280;70020;45.524;10.240;2023-07-20T07:24:24;99594.13;;;38.74;36.89
80654;BME280;70020;45.524;10.240;2023-07-20T07:26:49;99591.28;;;38.93;36.54
80654;BME280;70020;45.524;10.240;2023-07-20T07:29:15;99597.94;;;39.22;37.03
80654;BME280;70020;45.524;10.240;2023-07-20T07:31:40;99611.06;;;39.29;37.60
80654;BME280;70020;45.524;10.240;2023-07-20T07:34:06;99606.69;;;39.19;36.94
80654;BME280;70020;45.524;10.240;2023-07-20T07:36:32;99602.44;;;39.49;36.10
80654;BME280;70020;45.524;10.240;2023-07-20T07:38:57;99608.06;;;38.81;37.07
80654;BME280;70020;45.524;10.240;2023-07-20T07:41:23;99600.88;;;38.49;37.91
80654;BME280;70020;45.524;10.240;2023-07-20T07:43:49;99601.06;;;38.53;38.50
80654;BME280;70020;45.524;10.240;2023-07-20T07:46:14;99606.78;;;38.51;37.56
80654;BME280;70020;45.524;10.240;2023-07-20T07:48:41;99603.56;;;38.63;38.34
80654;BME280;70020;45.524;10.240;2023-07-20T07:51:07;99602.03;;;38.70;38.00
80654;BME280;70020;45.524;10.240;2023-07-20T07:53:32;99608.06;;;38.81;37.60
80654;BME280;70020;45.524;10.240;2023-07-20T07:56:01;99608.25;;;38.71;37.65
80654;BME280;70020;45.524;10.240;2023-07-20T07:58:28;99608.97;;;38.76;37.62
80654;BME280;70020;45.524;10.240;2023-07-20T08:00:54;99615.47;;;38.89;37.49
80654;BME280;70020;45.524;10.240;2023-07-20T08:03:20;99611.25;;;39.32;37.06
80654;BME280;70020;45.524;10.240;2023-07-20T08:05:46;99615.00;;;39.67;36.03
80654;BME280;70020;45.524;10.240;2023-07-20T08:08:13;99614.97;;;39.59;35.79
80654;BME280;70020;45.524;10.240;2023-07-20T08:10:39;99605.13;;;39.93;35.77
80654;BME280;70020;45.524;10.240;2023-07-20T08:13:04;99617.22;;;39.43;36.47
80654;BME280;70020;45.524;10.240;2023-07-20T08:15:30;99620.31;;;39.72;36.83
80654;BME280;70020;45.524;10.240;2023-07-20T08:17:58;99625.41;;;39.52;36.60
80654;BME280;70020;45.524;10.240;2023-07-20T08:20:24;99631.16;;;39.72;36.42
80654;BME280;70020;45.524;10.240;2023-07-20T08:22:53;99634.84;;;39.54;37.08
80654;BME280;70020;45.524;10.240;2023-07-20T08:25:19;99637.69;;;39.35;37.14
80654;BME280;70020;45.524;10.240;2023-07-20T08:27:45;99632.31;;;39.80;35.51
80654;BME280;70020;45.524;10.240;2023-07-20T08:30:12;99631.63;;;39.30;36.36
80654;BME280;70020;45.524;10.240;2023-07-20T08:32:38;99640.22;;;38.96;38.86
80654;BME280;70020;45.524;10.240;2023-07-20T08:35:03;99638.38;;;39.05;37.03
80654;BME280;70020;45.524;10.240;2023-07-20T08:37:32;99635.25;;;39.12;36.22
80654;BME280;70020;45.524;10.240;2023-07-20T08:39:57;99640.38;;;39.13;36.97
80654;BME280;70020;45.524;10.240;2023-07-20T08:42:23;99636.09;;;39.57;35.67
80654;BME280;70020;45.524;10.240;2023-07-20T08:44:52;99626.44;;;40.08;34.38
80654;BME280;70020;45.524;10.240;2023-07-20T08:47:18;99627.06;;;39.83;35.10
80654;BME280;70020;45.524;10.240;2023-07-20T08:49:48;99639.13;;;39.55;34.27
80654;BME280;70020;45.524;10.240;2023-07-20T08:52:14;99641.06;;;39.19;34.84
80654;BME280;70020;45.524;10.240;2023-07-20T08:54:40;99649.66;;;39.34;34.84
80654;BME280;70020;45.524;10.240;2023-07-20T08:57:07;99638.59;;;39.09;34.28
80654;BME280;70020;45.524;10.240;2023-07-20T08:59:34;99640.84;;;39.29;33.49
80654;BME280;70020;45.524;10.240;2023-07-20T09:02:02;99634.88;;;39.40;33.26
80654;BME280;70020;45.524;10.240;2023-07-20T09:04:30;99629.66;;;39.97;32.34
80654;BME280;70020;45.524;10.240;2023-07-20T09:06:56;99632.91;;;40.38;31.15
80654;BME280;70020;45.524;10.240;2023-07-20T09:09:22;99630.81;;;39.96;32.18
80654;BME280;70020;45.524;10.240;2023-07-20T09:11:49;99631.75;;;39.91;32.55
80654;BME280;70020;45.524;10.240;2023-07-20T09:14:14;99626.50;;;39.28;33.31
80654;BME280;70020;45.524;10.240;2023-07-20T09:16:52;99638.03;;;39.56;33.74
80654;BME280;70020;45.524;10.240;2023-07-20T09:19:18;99631.50;;;40.01;32.28
80654;BME280;70020;45.524;10.240;2023-07-20T09:21:45;99628.13;;;39.74;32.45
80654;BME280;70020;45.524;10.240;2023-07-20T09:24:12;99632.91;;;39.99;32.01
80654;BME280;70020;45.524;10.240;2023-07-20T09:26:42;99624.63;;;40.04;31.93
80654;BME280;70020;45.524;10.240;2023-07-20T09:29:11;99624.00;;;39.76;32.07
80654;BME280;70020;45.524;10.240;2023-07-20T09:31:37;99632.84;;;39.90;31.83
80654;BME280;70020;45.524;10.240;2023-07-20T09:34:04;99626.34;;;40.31;31.48
80654;BME280;70020;45.524;10.240;2023-07-20T09:36:34;99625.84;;;40.20;31.58
80654;BME280;70020;45.524;10.240;2023-07-20T09:39:01;99622.84;;;39.99;31.68
80654;BME280;70020;45.524;10.240;2023-07-20T09:41:27;99618.81;;;39.97;32.32
80654;BME280;70020;45.524;10.240;2023-07-20T09:43:53;99622.53;;;40.01;31.84
80654;BME280;70020;45.524;10.240;2023-07-20T09:46:19;99623.16;;;40.37;31.05
80654;BME280;70020;45.524;10.240;2023-07-20T09:48:52;99628.69;;;40.15;31.71
80654;BME280;70020;45.524;10.240;2023-07-20T09:51:22;99627.63;;;40.33;31.81
80654;BME280;70020;45.524;10.240;2023-07-20T09:53:52;99619.59;;;40.50;31.38
80654;BME280;70020;45.524;10.240;2023-07-20T09:56:21;99619.25;;;39.82;32.63
80654;BME280;70020;45.524;10.240;2023-07-20T09:58:47;99613.31;;;40.02;32.32
80654;BME280;70020;45.524;10.240;2023-07-20T10:01:18;99609.50;;;40.03;32.17
80654;BME280;70020;45.524;10.240;2023-07-20T10:03:46;99604.75;;;40.08;31.75
80654;BME280;70020;45.524;10.240;2023-07-20T10:06:15;99611.50;;;40.28;31.28
80654;BME280;70020;45.524;10.240;2023-07-20T10:08:45;99607.25;;;40.44;30.71
80654;BME280;70020;45.524;10.240;2023-07-20T10:11:15;99597.94;;;39.97;32.18
80654;BME280;70020;45.524;10.240;2023-07-20T10:13:43;99605.84;;;40.07;32.59
80654;BME280;70020;45.524;10.240;2023-07-20T10:16:15;99597.53;;;40.04;32.03
80654;BME280;70020;45.524;10.240;2023-07-20T10:18:50;99599.53;;;40.29;32.22
80654;BME280;70020;45.524;10.240;2023-07-20T10:21:17;99600.50;;;40.25;33.22
80654;BME280;70020;45.524;10.240;2023-07-20T10:23:45;99597.13;;;40.19;32.89
80654;BME280;70020;45.524;10.240;2023-07-20T10:26:11;99593.00;;;40.30;32.30
80654;BME280;70020;45.524;10.240;2023-07-20T10:28:38;99593.56;;;40.10;32.25
80654;BME280;70020;45.524;10.240;2023-07-20T10:31:04;99591.84;;;40.53;31.38
80654;BME280;70020;45.524;10.240;2023-07-20T10:33:30;99587.84;;;40.59;31.31
80654;BME280;70020;45.524;10.240;2023-07-20T10:36:00;99591.56;;;40.33;31.55
80654;BME280;70020;45.524;10.240;2023-07-20T10:41:31;99589.28;;;40.65;31.22
80654;BME280;70020;45.524;10.240;2023-07-20T10:44:03;99585.31;;;40.63;31.27
80654;BME280;70020;45.524;10.240;2023-07-20T10:49:09;99582.75;;;40.75;31.50
80654;BME280;70020;45.524;10.240;2023-07-20T10:51:40;99582.78;;;40.92;30.79
80654;BME280;70020;45.524;10.240;2023-07-20T10:57:24;99572.44;;;40.38;31.47
80654;BME280;70020;45.524;10.240;2023-07-20T10:59:49;99571.25;;;40.78;30.58
80654;BME280;70020;45.524;10.240;2023-07-20T11:02:18;99570.94;;;40.62;31.44
80654;BME280;70020;45.524;10.240;2023-07-20T11:04:46;99573.16;;;40.60;30.82
80654;BME280;70020;45.524;10.240;2023-07-20T11:07:36;99563.13;;;40.78;31.13
80654;BME280;70020;45.524;10.240;2023-07-20T11:10:15;99568.19;;;40.54;30.85
80654;BME280;70020;45.524;10.240;2023-07-20T11:12:41;99562.75;;;40.45;30.87
80654;BME280;70020;45.524;10.240;2023-07-20T11:15:07;99558.53;;;40.22;31.19
80654;BME280;70020;45.524;10.240;2023-07-20T11:17:33;99559.06;;;40.41;31.18
80654;BME280;70020;45.524;10.240;2023-07-20T11:20:00;99547.81;;;40.99;30.34
80654;BME280;70020;45.524;10.240;2023-07-20T11:22:27;99549.84;;;40.68;30.86
80654;BME280;70020;45.524;10.240;2023-07-20T11:24:57;99541.75;;;41.02;30.80
80654;BME280;70020;45.524;10.240;2023-07-20T11:27:23;99541.06;;;40.45;30.64
80654;BME280;70020;45.524;10.240;2023-07-20T11:29:49;99539.69;;;40.26;31.36
80654;BME280;70020;45.524;10.240;2023-07-20T11:32:23;99537.56;;;40.70;30.22
80654;BME280;70020;45.524;10.240;2023-07-20T11:34:49;99538.47;;;40.40;30.62
80654;BME280;70020;45.524;10.240;2023-07-20T11:37:15;99534.94;;;40.40;30.90
80654;BME280;70020;45.524;10.240;2023-07-20T11:39:41;99530.88;;;40.03;31.45
80654;BME280;70020;45.524;10.240;2023-07-20T11:42:07;99527.59;;;40.32;31.42
80654;BME280;70020;45.524;10.240;2023-07-20T11:44:33;99532.06;;;40.36;30.85
80654;BME280;70020;45.524;10.240;2023-07-20T11:47:00;99530.75;;;40.17;31.63
80654;BME280;70020;45.524;10.240;2023-07-20T11:49:28;99526.47;;;40.24;31.28
80654;BME280;70020;45.524;10.240;2023-07-20T11:51:54;99529.91;;;40.64;31.46
80654;BME280;70020;45.524;10.240;2023-07-20T11:54:21;99520.31;;;40.49;31.11
80654;BME280;70020;45.524;10.240;2023-07-20T11:56:47;99521.69;;;40.38;31.69
80654;BME280;70020;45.524;10.240;2023-07-20T11:59:14;99529.69;;;40.43;30.61
80654;BME280;70020;45.524;10.240;2023-07-20T12:01:40;99520.78;;;40.68;29.75
80654;BME280;70020;45.524;10.240;2023-07-20T12:04:06;99519.69;;;40.52;29.79
80654;BME280;70020;45.524;10.240;2023-07-20T12:06:32;99522.72;;;40.51;30.23
80654;BME280;70020;45.524;10.240;2023-07-20T12:08:58;99518.41;;;40.50;30.71
80654;BME280;70020;45.524;10.240;2023-07-20T12:11:37;99521.19;;;40.19;30.25
80654;BME280;70020;45.524;10.240;2023-07-20T12:14:06;99518.81;;;40.35;30.86
80654;BME280;70020;45.524;10.240;2023-07-20T12:16:33;99516.25;;;39.82;30.46
80654;BME280;70020;45.524;10.240;2023-07-20T12:19:07;99507.28;;;40.03;30.23
80654;BME280;70020;45.524;10.240;2023-07-20T12:21:37;99504.34;;;40.56;29.66
80654;BME280;70020;45.524;10.240;2023-07-20T12:24:04;99509.31;;;40.46;30.14
80654;BME280;70020;45.524;10.240;2023-07-20T12:26:30;99506.94;;;40.70;30.15
80654;BME280;70020;45.524;10.240;2023-07-20T12:28:56;99495.28;;;40.87;29.39
80654;BME280;70020;45.524;10.240;2023-07-20T12:31:23;99501.63;;;41.33;29.82
80654;BME280;70020;45.524;10.240;2023-07-20T12:33:53;99499.06;;;41.20;29.50
80654;BME280;70020;45.524;10.240;2023-07-20T12:36:20;99497.94;;;41.38;29.28
80654;BME280;70020;45.524;10.240;2023-07-20T12:38:46;99490.94;;;41.11;29.45
80654;BME280;70020;45.524;10.240;2023-07-20T12:41:13;99491.28;;;40.84;28.28
80654;BME280;70020;45.524;10.240;2023-07-20T12:43:42;99489.53;;;40.62;28.71
80654;BME280;70020;45.524;10.240;2023-07-20T12:46:09;99479.88;;;40.31;29.84
80654;BME280;70020;45.524;10.240;2023-07-20T12:48:35;99483.44;;;40.83;28.69
80654;BME280;70020;45.524;10.240;2023-07-20T12:51:02;99476.56;;;41.19;28.19
80654;BME280;70020;45.524;10.240;2023-07-20T12:53:29;99477.22;;;41.63;27.45
80654;BME280;70020;45.524;10.240;2023-07-20T12:55:54;99470.00;;;41.12;27.48
80654;BME280;70020;45.524;10.240;2023-07-20T12:58:20;99468.88;;;41.13;27.40
80654;BME280;70020;45.524;10.240;2023-07-20T13:00:46;99470.81;;;41.12;27.58
80654;BME280;70020;45.524;10.240;2023-07-20T13:03:12;99465.72;;;41.02;26.43
80654;BME280;70020;45.524;10.240;2023-07-20T13:05:37;99463.31;;;41.09;26.96
80654;BME280;70020;45.524;10.240;2023-07-20T13:08:05;99459.94;;;41.04;26.42